Seattle, Washington
Traffic Map
Current Weather Conditions
Seattle, Washington
Overcast
Overcast

Feels Like: 7°
Wind Chill: Ceiling: 2800
Heat Index: Visibility: 10mi
Dew Point: Wind: 7mph
Humidity: 77% Direction: 120° (ESE)
Pressure: 30.27in Gusts: 0mph
Raw Report DataKBFI 201053Z 12006KT 10SM OVC028 09/05 A3027 RMK AO2 SLP248 T00890050
Traffic Incident Summary
Active as of:
Severity:
Category:
InformationThere was an issue retrieving the traffic information for this location. Please try a different location or try again shortly.
Advertisements
At Last! Intellicast now available for iPhone and Android